<?xml version="1.0" encoding="UTF-8" standalone="no" ?>
<gpx xmlns="http://www.topografix.com/GPX/1/1" xmlns:xsi="http://www.w3.org/2001/XMLSchema-instance" xsi:schemaLocation="http://www.topografix.com/GPX/1/1 http://www.topografix.com/GPX/1/1/gpx.xsd" version="1.1" creator="VisuGPX - https://www.visugpx.com">
  <metadata>
    <name>Lancieux</name>
  </metadata>
  <trk>
    <name><![CDATA[Sequence 2]]></name>
    <trkseg>
      <trkpt lat="48.57539" lon="-2.07579">
        <ele>62</ele>
        <time>2017-06-18T08:29:12Z</time>
      </trkpt>
      <trkpt lat="48.57544" lon="-2.07526">
        <ele>60</ele>
        <time>2017-06-18T08:29:18Z</time>
      </trkpt>
      <trkpt lat="48.57548" lon="-2.07506">
        <ele>60</ele>
        <time>2017-06-18T08:29:22Z</time>
      </trkpt>
      <trkpt lat="48.57555" lon="-2.07467">
        <ele>61</ele>
        <time>2017-06-18T08:29:26Z</time>
      </trkpt>
      <trkpt lat="48.57565" lon="-2.07426">
        <ele>61</ele>
        <time>2017-06-18T08:29:31Z</time>
      </trkpt>
      <trkpt lat="48.57577" lon="-2.07381">
        <ele>60</ele>
        <time>2017-06-18T08:29:37Z</time>
      </trkpt>
      <trkpt lat="48.57595" lon="-2.07317">
        <ele>59</ele>
        <time>2017-06-18T08:29:44Z</time>
      </trkpt>
      <trkpt lat="48.57599" lon="-2.07304">
        <ele>60</ele>
        <time>2017-06-18T08:29:46Z</time>
      </trkpt>
      <trkpt lat="48.57608" lon="-2.07276">
        <ele>61</ele>
        <time>2017-06-18T08:29:51Z</time>
      </trkpt>
      <trkpt lat="48.57618" lon="-2.0725">
        <ele>63</ele>
        <time>2017-06-18T08:29:57Z</time>
      </trkpt>
      <trkpt lat="48.57625" lon="-2.07225">
        <ele>64</ele>
        <time>2017-06-18T08:30:02Z</time>
      </trkpt>
      <trkpt lat="48.57633" lon="-2.07195">
        <ele>65</ele>
        <time>2017-06-18T08:30:08Z</time>
      </trkpt>
      <trkpt lat="48.57639" lon="-2.07168">
        <ele>66</ele>
        <time>2017-06-18T08:30:12Z</time>
      </trkpt>
      <trkpt lat="48.57646" lon="-2.07146">
        <ele>67</ele>
        <time>2017-06-18T08:30:17Z</time>
      </trkpt>
      <trkpt lat="48.57654" lon="-2.07119">
        <ele>69</ele>
        <time>2017-06-18T08:30:21Z</time>
      </trkpt>
      <trkpt lat="48.57661" lon="-2.07095">
        <ele>70</ele>
        <time>2017-06-18T08:30:26Z</time>
      </trkpt>
      <trkpt lat="48.5767" lon="-2.07073">
        <ele>71</ele>
        <time>2017-06-18T08:30:32Z</time>
      </trkpt>
      <trkpt lat="48.57679" lon="-2.07049">
        <ele>70</ele>
        <time>2017-06-18T08:30:36Z</time>
      </trkpt>
      <trkpt lat="48.5769" lon="-2.07025">
        <ele>71</ele>
        <time>2017-06-18T08:30:42Z</time>
      </trkpt>
      <trkpt lat="48.57703" lon="-2.07002">
        <ele>71</ele>
        <time>2017-06-18T08:30:47Z</time>
      </trkpt>
      <trkpt lat="48.57717" lon="-2.0698">
        <ele>70</ele>
        <time>2017-06-18T08:30:52Z</time>
      </trkpt>
      <trkpt lat="48.57733" lon="-2.06959">
        <ele>70</ele>
        <time>2017-06-18T08:30:57Z</time>
      </trkpt>
      <trkpt lat="48.57749" lon="-2.06939">
        <ele>70</ele>
        <time>2017-06-18T08:31:02Z</time>
      </trkpt>
      <trkpt lat="48.57766" lon="-2.06918">
        <ele>70</ele>
        <time>2017-06-18T08:31:06Z</time>
      </trkpt>
      <trkpt lat="48.57783" lon="-2.06898">
        <ele>70</ele>
        <time>2017-06-18T08:31:12Z</time>
      </trkpt>
      <trkpt lat="48.57802" lon="-2.06877">
        <ele>70</ele>
        <time>2017-06-18T08:31:16Z</time>
      </trkpt>
      <trkpt lat="48.57819" lon="-2.06855">
        <ele>69</ele>
        <time>2017-06-18T08:31:22Z</time>
      </trkpt>
      <trkpt lat="48.57841" lon="-2.06828">
        <ele>69</ele>
        <time>2017-06-18T08:31:28Z</time>
      </trkpt>
      <trkpt lat="48.57853" lon="-2.06809">
        <ele>67</ele>
        <time>2017-06-18T08:31:31Z</time>
      </trkpt>
      <trkpt lat="48.5787" lon="-2.06766">
        <ele>68</ele>
        <time>2017-06-18T08:31:39Z</time>
      </trkpt>
      <trkpt lat="48.57876" lon="-2.06753">
        <ele>70</ele>
        <time>2017-06-18T08:31:41Z</time>
      </trkpt>
      <trkpt lat="48.57893" lon="-2.06704">
        <ele>70</ele>
        <time>2017-06-18T08:31:49Z</time>
      </trkpt>
      <trkpt lat="48.57898" lon="-2.06687">
        <ele>72</ele>
        <time>2017-06-18T08:31:52Z</time>
      </trkpt>
      <trkpt lat="48.57904" lon="-2.06661">
        <ele>71</ele>
        <time>2017-06-18T08:31:56Z</time>
      </trkpt>
      <trkpt lat="48.57913" lon="-2.06628">
        <ele>72</ele>
        <time>2017-06-18T08:32:02Z</time>
      </trkpt>
      <trkpt lat="48.57921" lon="-2.06595">
        <ele>74</ele>
        <time>2017-06-18T08:32:06Z</time>
      </trkpt>
      <trkpt lat="48.57927" lon="-2.06562">
        <ele>74</ele>
        <time>2017-06-18T08:32:11Z</time>
      </trkpt>
      <trkpt lat="48.57934" lon="-2.0652">
        <ele>74</ele>
        <time>2017-06-18T08:32:17Z</time>
      </trkpt>
      <trkpt lat="48.57936" lon="-2.06494">
        <ele>73</ele>
        <time>2017-06-18T08:32:22Z</time>
      </trkpt>
      <trkpt lat="48.57943" lon="-2.0646">
        <ele>74</ele>
        <time>2017-06-18T08:32:27Z</time>
      </trkpt>
      <trkpt lat="48.57946" lon="-2.06424">
        <ele>74</ele>
        <time>2017-06-18T08:32:32Z</time>
      </trkpt>
      <trkpt lat="48.57942" lon="-2.06386">
        <ele>74</ele>
        <time>2017-06-18T08:32:36Z</time>
      </trkpt>
      <trkpt lat="48.57934" lon="-2.0636">
        <ele>73</ele>
        <time>2017-06-18T08:32:41Z</time>
      </trkpt>
      <trkpt lat="48.5792" lon="-2.06335">
        <ele>72</ele>
        <time>2017-06-18T08:32:48Z</time>
      </trkpt>
      <trkpt lat="48.57905" lon="-2.06329">
        <ele>73</ele>
        <time>2017-06-18T08:32:52Z</time>
      </trkpt>
      <trkpt lat="48.57888" lon="-2.0632">
        <ele>73</ele>
        <time>2017-06-18T08:32:56Z</time>
      </trkpt>
      <trkpt lat="48.57855" lon="-2.06303">
        <ele>73</ele>
        <time>2017-06-18T08:33:04Z</time>
      </trkpt>
      <trkpt lat="48.57848" lon="-2.06299">
        <ele>72</ele>
        <time>2017-06-18T08:33:06Z</time>
      </trkpt>
      <trkpt lat="48.57827" lon="-2.06286">
        <ele>69</ele>
        <time>2017-06-18T08:33:12Z</time>
      </trkpt>
      <trkpt lat="48.57792" lon="-2.06268">
        <ele>65</ele>
        <time>2017-06-18T08:33:21Z</time>
      </trkpt>
      <trkpt lat="48.57788" lon="-2.06266">
        <ele>64</ele>
        <time>2017-06-18T08:33:21Z</time>
      </trkpt>
      <trkpt lat="48.57763" lon="-2.06252">
        <ele>66</ele>
        <time>2017-06-18T08:33:27Z</time>
      </trkpt>
      <trkpt lat="48.57733" lon="-2.06236">
        <ele>71</ele>
        <time>2017-06-18T08:33:33Z</time>
      </trkpt>
      <trkpt lat="48.57719" lon="-2.06228">
        <ele>73</ele>
        <time>2017-06-18T08:33:36Z</time>
      </trkpt>
      <trkpt lat="48.57681" lon="-2.06204">
        <ele>74</ele>
        <time>2017-06-18T08:33:45Z</time>
      </trkpt>
      <trkpt lat="48.5767" lon="-2.06199">
        <ele>74</ele>
        <time>2017-06-18T08:33:49Z</time>
      </trkpt>
      <trkpt lat="48.57658" lon="-2.06193">
        <ele>75</ele>
        <time>2017-06-18T08:33:52Z</time>
      </trkpt>
      <trkpt lat="48.5764" lon="-2.06182">
        <ele>74</ele>
        <time>2017-06-18T08:33:57Z</time>
      </trkpt>
      <trkpt lat="48.57607" lon="-2.06166">
        <ele>78</ele>
        <time>2017-06-18T08:34:05Z</time>
      </trkpt>
      <trkpt lat="48.57603" lon="-2.06164">
        <ele>78</ele>
        <time>2017-06-18T08:34:06Z</time>
      </trkpt>
      <trkpt lat="48.57583" lon="-2.06152">
        <ele>78</ele>
        <time>2017-06-18T08:34:11Z</time>
      </trkpt>
      <trkpt lat="48.57569" lon="-2.06144">
        <ele>78</ele>
        <time>2017-06-18T08:34:17Z</time>
      </trkpt>
      <trkpt lat="48.57566" lon="-2.06136">
        <ele>77</ele>
        <time>2017-06-18T08:34:22Z</time>
      </trkpt>
      <trkpt lat="48.57567" lon="-2.06122">
        <ele>76</ele>
        <time>2017-06-18T08:34:27Z</time>
      </trkpt>
      <trkpt lat="48.57576" lon="-2.06092">
        <ele>73</ele>
        <time>2017-06-18T08:34:31Z</time>
      </trkpt>
      <trkpt lat="48.57588" lon="-2.0605">
        <ele>71</ele>
        <time>2017-06-18T08:34:37Z</time>
      </trkpt>
      <trkpt lat="48.57597" lon="-2.06021">
        <ele>70</ele>
        <time>2017-06-18T08:34:41Z</time>
      </trkpt>
      <trkpt lat="48.57611" lon="-2.05978">
        <ele>72</ele>
        <time>2017-06-18T08:34:48Z</time>
      </trkpt>
      <trkpt lat="48.57626" lon="-2.05933">
        <ele>75</ele>
        <time>2017-06-18T08:34:55Z</time>
      </trkpt>
      <trkpt lat="48.57627" lon="-2.05931">
        <ele>74</ele>
        <time>2017-06-18T08:34:56Z</time>
      </trkpt>
      <trkpt lat="48.57627" lon="-2.0593">
        <ele>77</ele>
        <time>2017-06-18T08:35:02Z</time>
      </trkpt>
      <trkpt lat="48.57628" lon="-2.05926">
        <ele>77</ele>
        <time>2017-06-18T08:35:05Z</time>
      </trkpt>
      <trkpt lat="48.57628" lon="-2.05919">
        <ele>77</ele>
        <time>2017-06-18T08:35:09Z</time>
      </trkpt>
      <trkpt lat="48.57629" lon="-2.05911">
        <ele>76</ele>
        <time>2017-06-18T08:35:14Z</time>
      </trkpt>
      <trkpt lat="48.57637" lon="-2.05902">
        <ele>74</ele>
        <time>2017-06-18T08:35:19Z</time>
      </trkpt>
      <trkpt lat="48.57637" lon="-2.05864">
        <ele>74</ele>
        <time>2017-06-18T08:35:27Z</time>
      </trkpt>
      <trkpt lat="48.57627" lon="-2.05848">
        <ele>75</ele>
        <time>2017-06-18T08:35:30Z</time>
      </trkpt>
      <trkpt lat="48.57615" lon="-2.05829">
        <ele>74</ele>
        <time>2017-06-18T08:35:34Z</time>
      </trkpt>
      <trkpt lat="48.57598" lon="-2.058">
        <ele>73</ele>
        <time>2017-06-18T08:35:39Z</time>
      </trkpt>
      <trkpt lat="48.57585" lon="-2.05767">
        <ele>73</ele>
        <time>2017-06-18T08:35:45Z</time>
      </trkpt>
      <trkpt lat="48.57567" lon="-2.0571">
        <ele>71</ele>
        <time>2017-06-18T08:35:53Z</time>
      </trkpt>
      <trkpt lat="48.57565" lon="-2.05702">
        <ele>71</ele>
        <time>2017-06-18T08:35:54Z</time>
      </trkpt>
      <trkpt lat="48.57555" lon="-2.0567">
        <ele>72</ele>
        <time>2017-06-18T08:36:00Z</time>
      </trkpt>
      <trkpt lat="48.57545" lon="-2.05639">
        <ele>73</ele>
        <time>2017-06-18T08:36:04Z</time>
      </trkpt>
      <trkpt lat="48.57534" lon="-2.05609">
        <ele>73</ele>
        <time>2017-06-18T08:36:10Z</time>
      </trkpt>
      <trkpt lat="48.57524" lon="-2.05584">
        <ele>73</ele>
        <time>2017-06-18T08:36:15Z</time>
      </trkpt>
      <trkpt lat="48.57516" lon="-2.05552">
        <ele>74</ele>
        <time>2017-06-18T08:36:20Z</time>
      </trkpt>
      <trkpt lat="48.57505" lon="-2.05519">
        <ele>76</ele>
        <time>2017-06-18T08:36:24Z</time>
      </trkpt>
      <trkpt lat="48.57494" lon="-2.05489">
        <ele>75</ele>
        <time>2017-06-18T08:36:29Z</time>
      </trkpt>
      <trkpt lat="48.57487" lon="-2.05462">
        <ele>75</ele>
        <time>2017-06-18T08:36:34Z</time>
      </trkpt>
      <trkpt lat="48.57474" lon="-2.05405">
        <ele>74</ele>
        <time>2017-06-18T08:36:42Z</time>
      </trkpt>
      <trkpt lat="48.57472" lon="-2.05392">
        <ele>72</ele>
        <time>2017-06-18T08:36:44Z</time>
      </trkpt>
      <trkpt lat="48.57468" lon="-2.05351">
        <ele>74</ele>
        <time>2017-06-18T08:36:49Z</time>
      </trkpt>
      <trkpt lat="48.57466" lon="-2.05301">
        <ele>74</ele>
        <time>2017-06-18T08:36:55Z</time>
      </trkpt>
      <trkpt lat="48.5746" lon="-2.05242">
        <ele>74</ele>
        <time>2017-06-18T08:37:02Z</time>
      </trkpt>
      <trkpt lat="48.57458" lon="-2.05223">
        <ele>73</ele>
        <time>2017-06-18T08:37:04Z</time>
      </trkpt>
      <trkpt lat="48.57455" lon="-2.05177">
        <ele>73</ele>
        <time>2017-06-18T08:37:10Z</time>
      </trkpt>
      <trkpt lat="48.57451" lon="-2.05129">
        <ele>72</ele>
        <time>2017-06-18T08:37:15Z</time>
      </trkpt>
      <trkpt lat="48.57445" lon="-2.0508">
        <ele>73</ele>
        <time>2017-06-18T08:37:21Z</time>
      </trkpt>
      <trkpt lat="48.57441" lon="-2.05059">
        <ele>73</ele>
        <time>2017-06-18T08:37:24Z</time>
      </trkpt>
    </trkseg>
  </trk>
</gpx>